Forside
METAR-TAF:

METAR-TAF

Lufthavne :

Chengdu Shuangliu International Airport

Chengdu, Kina

Breddekreds: 30-40N, længdekreds: 104-01E, højde: 508 m

Aktuelle vejr

Denne rapport blev lavet for 38 minutter siden, kl. 13:00 UTC
Vind 8 kt fra sydøst, varierende mellem øst og sydsydøst
Temperatur 20°C
Fugtighed 43%
Tryk 1014 hPa
Sigt 10 km eller mere
Spredte skyer i en højde af 4000 ft

METAR: ZUUU 311300Z 13004MPS 090V150 9999 SCT040 20/07 Q1014 NOSIG

Tid: 21:38 (13:38 UTC)

Vejrudsigter

Denne rapport blev lavet for 5 timer og 31 minutter siden, kl. 08:07 UTC
Foreløbig gælder fra 31 på 12 UTC til 01 på 12 UTC
Vind 6 kt fra syd
Sigt: 5000 m
Spredte skyer i en højde af 4000 ft
dis

TAF: ZUUU 310807Z 3112/0112 18003MPS 5000 BR SCT040 TX20/0107Z TN12/3123Z

Vejrobservationer og prognoser fra mere end 4000 lufthavne (METAR og TAF).

De gule og røde prikker repræsenterer de meteorologiske stationer.

Flyt musen over at se navnet på stationen.

Så klik over at se vejr observationer og prognoser.

At skifte det kort: Klik på de grønne knapper med et sort kors for at zoome ind; på den grønne knap med en bindestreg for at zoome ud; eller på de grønne pile for tilstødende kort.


METAR-TAF: